createdAt,value
2018-03-14T00:00:18.322Z,1005.21
2018-03-14T00:01:18.329Z,1005.22
2018-03-14T00:02:18.334Z,1005.25
2018-03-14T00:03:18.331Z,1005.23
2018-03-14T00:04:18.366Z,1005.28
2018-03-14T00:05:18.351Z,1005.24
2018-03-14T00:06:18.358Z,1005.22
2018-03-14T00:07:18.361Z,1005.24
2018-03-14T00:08:18.369Z,1005.23
2018-03-14T00:09:18.374Z,1005.26
2018-03-14T00:10:18.383Z,1005.22
2018-03-14T00:11:18.387Z,1005.22
2018-03-14T00:12:18.384Z,1005.24
2018-03-14T00:13:18.386Z,1005.22
2018-03-14T00:14:18.401Z,1005.17
2018-03-14T00:15:18.394Z,1005.22
2018-03-14T00:16:18.398Z,1005.23
2018-03-14T00:17:18.399Z,1005.22
2018-03-14T00:18:18.411Z,1005.22
2018-03-14T00:19:18.454Z,1005.21
2018-03-14T00:20:18.424Z,1005.23
2018-03-14T00:21:18.431Z,1005.22
2018-03-14T00:22:18.438Z,1005.23
2018-03-14T00:23:18.438Z,1005.22
2018-03-14T00:24:18.452Z,1005.25
2018-03-14T00:25:18.488Z,1005.31
2018-03-14T00:26:19.461Z,1005.24
2018-03-14T00:27:18.451Z,1005.27
2018-03-14T00:28:18.464Z,1005.26
2018-03-14T00:29:18.525Z,1005.25
2018-03-14T00:30:18.474Z,1005.29
2018-03-14T00:31:18.577Z,1005.33
2018-03-14T00:32:18.479Z,1005.35
2018-03-14T00:33:18.482Z,1005.34
2018-03-14T00:34:18.494Z,1005.31
2018-03-14T00:35:18.531Z,1005.32
2018-03-14T00:36:18.507Z,1005.27
2018-03-14T00:37:18.505Z,1005.37
2018-03-14T00:38:18.508Z,1005.35
2018-03-14T00:39:18.517Z,1005.34
2018-03-14T00:40:18.528Z,1005.33
2018-03-14T00:41:18.522Z,1005.36
2018-03-14T00:42:18.534Z,1005.33
2018-03-14T00:43:18.526Z,1005.35
2018-03-14T00:44:18.533Z,1005.31
2018-03-14T00:45:18.560Z,1005.39
2018-03-14T00:46:18.549Z,1005.38
2018-03-14T00:47:18.549Z,1005.35
2018-03-14T00:48:18.583Z,1005.35
2018-03-14T00:49:18.558Z,1005.32
2018-03-14T00:50:18.566Z,1005.34
2018-03-14T00:51:18.574Z,1005.34
2018-03-14T00:52:18.579Z,1005.32
2018-03-14T00:53:18.582Z,1005.36
2018-03-14T00:54:18.589Z,1005.36
2018-03-14T00:55:18.587Z,1005.32
2018-03-14T00:56:18.611Z,1005.34
2018-03-14T00:57:18.605Z,1005.35
2018-03-14T00:58:18.608Z,1005.37
2018-03-14T00:59:18.610Z,1005.34
2018-03-14T01:00:18.618Z,1005.34
2018-03-14T01:01:18.635Z,1005.40
2018-03-14T01:02:18.628Z,1005.36
2018-03-14T01:03:18.655Z,1005.42
2018-03-14T01:04:18.653Z,1005.46
2018-03-14T01:05:18.638Z,1005.40
2018-03-14T01:06:18.646Z,1005.42
2018-03-14T01:07:18.654Z,1005.47
2018-03-14T01:08:18.664Z,1005.48
2018-03-14T01:09:18.671Z,1005.42
2018-03-14T01:10:18.683Z,1005.44
2018-03-14T01:11:18.670Z,1005.46
2018-03-14T01:12:18.686Z,1005.45
2018-03-14T01:13:18.680Z,1005.48
2018-03-14T01:14:18.688Z,1005.46
2018-03-14T01:15:18.691Z,1005.46
2018-03-14T01:16:18.714Z,1005.46
2018-03-14T01:17:18.693Z,1005.50
2018-03-14T01:18:18.719Z,1005.48
2018-03-14T01:19:18.704Z,1005.50
2018-03-14T01:20:18.728Z,1005.54
2018-03-14T01:21:18.755Z,1005.52
2018-03-14T01:22:18.741Z,1005.54
2018-03-14T01:23:18.720Z,1005.50
2018-03-14T01:24:18.739Z,1005.52
2018-03-14T01:25:18.745Z,1005.54
2018-03-14T01:26:18.742Z,1005.52
2018-03-14T01:27:18.746Z,1005.51
2018-03-14T01:28:18.750Z,1005.54
2018-03-14T01:29:18.754Z,1005.51
2018-03-14T01:30:18.781Z,1005.53
2018-03-14T01:31:18.769Z,1005.48
2018-03-14T01:32:18.773Z,1005.56
2018-03-14T01:33:18.775Z,1005.55
2018-03-14T01:34:18.787Z,1005.58
2018-03-14T01:35:18.779Z,1005.54
2018-03-14T01:36:18.790Z,1005.56
2018-03-14T01:37:18.788Z,1005.53
2018-03-14T01:38:18.798Z,1005.54
2018-03-14T01:39:18.801Z,1005.50
2018-03-14T01:40:18.806Z,1005.55
2018-03-14T01:41:18.813Z,1005.53
2018-03-14T01:42:18.820Z,1005.50
2018-03-14T01:43:18.827Z,1005.56
2018-03-14T01:44:18.861Z,1005.53
2018-03-14T01:45:18.828Z,1005.54
2018-03-14T01:46:18.839Z,1005.58
2018-03-14T01:47:18.840Z,1005.52
2018-03-14T01:48:18.849Z,1005.61
2018-03-14T01:49:18.847Z,1005.57
2018-03-14T01:50:18.855Z,1005.55
2018-03-14T01:51:18.860Z,1005.57
2018-03-14T01:52:18.866Z,1005.54
2018-03-14T01:53:18.871Z,1005.52
2018-03-14T01:54:18.877Z,1005.56
2018-03-14T01:55:18.889Z,1005.51
2018-03-14T01:56:18.889Z,1005.55
2018-03-14T01:57:18.886Z,1005.58
2018-03-14T01:58:18.905Z,1005.58
2018-03-14T01:59:18.903Z,1005.60
2018-03-14T02:00:18.903Z,1005.57
2018-03-14T02:01:18.904Z,1005.58
2018-03-14T02:02:18.924Z,1005.54
2018-03-14T02:03:18.916Z,1005.56
2018-03-14T02:04:18.922Z,1005.63
2018-03-14T02:05:18.924Z,1005.69
2018-03-14T02:06:18.936Z,1005.66
2018-03-14T02:07:18.945Z,1005.70
2018-03-14T02:08:18.937Z,1005.64
2018-03-14T02:09:18.944Z,1005.64
2018-03-14T02:10:18.953Z,1005.64
2018-03-14T02:11:18.958Z,1005.61
2018-03-14T02:12:18.959Z,1005.62
2018-03-14T02:13:18.960Z,1005.64
2018-03-14T02:14:18.977Z,1005.63
2018-03-14T02:15:19.064Z,1005.64
2018-03-14T02:16:19.014Z,1005.66
2018-03-14T02:17:18.982Z,1005.61
2018-03-14T02:18:18.989Z,1005.60
2018-03-14T02:19:19.023Z,1005.63
2018-03-14T02:20:19.001Z,1005.63
2018-03-14T02:21:18.999Z,1005.64
2018-03-14T02:22:19.008Z,1005.62
2018-03-14T02:23:19.008Z,1005.66
2018-03-14T02:24:19.013Z,1005.62
2018-03-14T02:25:19.018Z,1005.65
2018-03-14T02:26:19.038Z,1005.62
2018-03-14T02:27:19.029Z,1005.64
2018-03-14T02:28:19.036Z,1005.62
2018-03-14T02:29:19.039Z,1005.59
2018-03-14T02:30:19.115Z,1005.60
2018-03-14T02:31:19.044Z,1005.62
2018-03-14T02:32:19.057Z,1005.66
2018-03-14T02:33:19.057Z,1005.62
2018-03-14T02:34:19.068Z,1005.65
2018-03-14T02:35:19.063Z,1005.69
2018-03-14T02:36:19.088Z,1005.63
2018-03-14T02:37:19.094Z,1005.64
2018-03-14T02:38:19.094Z,1005.63
2018-03-14T02:39:19.100Z,1005.64
2018-03-14T02:40:19.095Z,1005.61
2018-03-14T02:41:19.100Z,1005.62
2018-03-14T02:42:19.108Z,1005.60
2018-03-14T02:43:19.100Z,1005.65
2018-03-14T02:44:19.112Z,1005.61
2018-03-14T02:45:19.112Z,1005.61
2018-03-14T02:46:19.119Z,1005.65
2018-03-14T02:47:19.116Z,1005.67
2018-03-14T02:48:19.148Z,1005.64
2018-03-14T02:49:19.129Z,1005.65
2018-03-14T02:50:19.138Z,1005.70
2018-03-14T02:51:19.142Z,1005.72
2018-03-14T02:52:19.147Z,1005.67
2018-03-14T02:53:19.151Z,1005.68
2018-03-14T02:54:19.154Z,1005.75
2018-03-14T02:55:19.194Z,1005.66
2018-03-14T02:56:19.179Z,1005.72
2018-03-14T02:57:19.169Z,1005.69
2018-03-14T02:58:19.172Z,1005.70
2018-03-14T02:59:19.171Z,1005.69
2018-03-14T03:00:19.180Z,1005.72
2018-03-14T03:01:19.183Z,1005.71
2018-03-14T03:02:19.190Z,1005.68
2018-03-14T03:03:19.202Z,1005.66
2018-03-14T03:04:19.212Z,1005.68
2018-03-14T03:05:19.199Z,1005.64
2018-03-14T03:06:19.209Z,1005.69
2018-03-14T03:07:19.213Z,1005.63
2018-03-14T03:08:19.232Z,1005.68
2018-03-14T03:09:19.224Z,1005.66
2018-03-14T03:10:19.237Z,1005.63
2018-03-14T03:11:19.230Z,1005.69
2018-03-14T03:12:19.243Z,1005.64
2018-03-14T03:13:19.240Z,1005.68
2018-03-14T03:14:19.260Z,1005.71
2018-03-14T03:15:19.247Z,1005.71
2018-03-14T03:16:19.255Z,1005.76
2018-03-14T03:17:19.257Z,1005.70
2018-03-14T03:18:19.269Z,1005.71
2018-03-14T03:19:19.269Z,1005.78
2018-03-14T03:20:19.274Z,1005.78
2018-03-14T03:21:19.273Z,1005.78
2018-03-14T03:22:19.293Z,1005.74
2018-03-14T03:23:19.294Z,1005.75
2018-03-14T03:24:19.308Z,1005.72
2018-03-14T03:25:19.300Z,1005.73
2018-03-14T03:26:19.316Z,1005.74
2018-03-14T03:27:19.308Z,1005.78
2018-03-14T03:28:19.312Z,1005.79
2018-03-14T03:29:19.313Z,1005.74
2018-03-14T03:30:19.319Z,1005.76
2018-03-14T03:31:19.385Z,1005.79
2018-03-14T03:32:19.324Z,1005.77
2018-03-14T03:33:19.329Z,1005.73
2018-03-14T03:34:19.335Z,1005.79
2018-03-14T03:35:19.360Z,1005.76
2018-03-14T03:36:19.349Z,1005.76
2018-03-14T03:37:19.362Z,1005.79
2018-03-14T03:38:19.381Z,1005.78
2018-03-14T03:39:19.358Z,1005.80
2018-03-14T03:40:19.366Z,1005.80
2018-03-14T03:41:19.366Z,1005.78
2018-03-14T03:42:19.376Z,1005.74
2018-03-14T03:43:19.383Z,1005.79
2018-03-14T03:44:19.381Z,1005.77
2018-03-14T03:45:19.389Z,1005.79
2018-03-14T03:46:19.393Z,1005.77
2018-03-14T03:47:19.395Z,1005.74
2018-03-14T03:48:19.407Z,1005.75
2018-03-14T03:49:19.402Z,1005.75
2018-03-14T03:50:19.414Z,1005.74
2018-03-14T03:51:19.408Z,1005.75
2018-03-14T03:52:19.437Z,1005.77
2018-03-14T03:53:19.423Z,1005.73
2018-03-14T03:54:19.426Z,1005.79
2018-03-14T03:55:19.430Z,1005.74
2018-03-14T03:56:19.458Z,1005.75
2018-03-14T03:57:19.439Z,1005.80
2018-03-14T03:58:19.450Z,1005.76
2018-03-14T03:59:19.448Z,1005.78
2018-03-14T04:00:19.469Z,1005.80
2018-03-14T04:01:19.457Z,1005.86
2018-03-14T04:02:19.467Z,1005.88
2018-03-14T04:03:19.470Z,1005.81
2018-03-14T04:04:19.479Z,1005.82
2018-03-14T04:05:19.481Z,1005.81
2018-03-14T04:06:19.506Z,1005.90
2018-03-14T04:07:19.488Z,1005.86
2018-03-14T04:08:19.499Z,1005.84
2018-03-14T04:09:19.490Z,1005.85
2018-03-14T04:10:19.510Z,1005.82
2018-03-14T04:11:19.513Z,1005.85
2018-03-14T04:12:19.504Z,1005.86
2018-03-14T04:13:19.506Z,1005.89
2018-03-14T04:14:19.570Z,1005.83
2018-03-14T04:15:19.517Z,1005.82
2018-03-14T04:16:19.529Z,1005.83
2018-03-14T04:17:19.523Z,1005.86
2018-03-14T04:18:19.535Z,1005.87
2018-03-14T04:19:19.545Z,1005.86
2018-03-14T04:20:19.560Z,1005.91
2018-03-14T04:21:19.580Z,1005.87
2018-03-14T04:22:19.591Z,1005.93
2018-03-14T04:23:19.553Z,1005.87
2018-03-14T04:24:19.572Z,1005.89
2018-03-14T04:25:19.565Z,1005.88
2018-03-14T04:26:19.572Z,1005.86
2018-03-14T04:27:19.574Z,1005.89
2018-03-14T04:28:19.583Z,1005.87
2018-03-14T04:29:19.577Z,1005.88
2018-03-14T04:30:19.595Z,1005.89
2018-03-14T04:31:19.590Z,1005.91
2018-03-14T04:32:19.594Z,1005.96
2018-03-14T04:33:19.600Z,1005.98
2018-03-14T04:34:19.624Z,1005.93
2018-03-14T04:35:19.606Z,1005.95
2018-03-14T04:36:19.617Z,1005.92
2018-03-14T04:37:19.618Z,1005.90
2018-03-14T04:38:19.682Z,1005.92
2018-03-14T04:39:19.628Z,1005.89
2018-03-14T04:40:19.636Z,1005.93
2018-03-14T04:41:19.632Z,1005.89
2018-03-14T04:42:19.649Z,1005.84
2018-03-14T04:43:19.644Z,1005.88
2018-03-14T04:44:19.651Z,1005.81
2018-03-14T04:45:19.650Z,1005.83
2018-03-14T04:46:19.661Z,1005.85
2018-03-14T04:47:19.662Z,1005.83
2018-03-14T04:48:19.666Z,1005.87
2018-03-14T04:49:19.671Z,1005.85
2018-03-14T04:50:19.672Z,1005.86
2018-03-14T04:51:19.712Z,1005.84
2018-03-14T04:52:20.685Z,1005.80
2018-03-14T04:53:19.693Z,1005.85
2018-03-14T04:54:19.703Z,1005.85
2018-03-14T04:55:19.693Z,1005.84
2018-03-14T04:56:19.754Z,1005.84
2018-03-14T04:57:19.702Z,1005.90
2018-03-14T04:58:19.716Z,1005.96
2018-03-14T04:59:19.713Z,1005.96
2018-03-14T05:00:19.715Z,1005.92
2018-03-14T05:01:19.718Z,1005.94
2018-03-14T05:02:19.763Z,1005.90
2018-03-14T05:03:19.735Z,1005.90
2018-03-14T05:04:19.740Z,1005.89
2018-03-14T05:05:19.747Z,1005.89
2018-03-14T05:06:19.745Z,1005.84
2018-03-14T05:07:19.749Z,1005.91
2018-03-14T05:08:19.749Z,1005.86
2018-03-14T05:09:19.756Z,1005.91
2018-03-14T05:10:19.764Z,1005.83
2018-03-14T05:11:19.771Z,1005.85
2018-03-14T05:12:19.781Z,1005.88
2018-03-14T05:13:19.783Z,1005.83
2018-03-14T05:14:19.785Z,1005.87
2018-03-14T05:15:19.789Z,1005.86
2018-03-14T05:16:30.388Z,1005.93
2018-03-14T05:17:19.849Z,1005.90
2018-03-14T05:18:45.384Z,1005.93
2018-03-14T05:19:19.810Z,1005.96
2018-03-14T05:20:19.811Z,1005.95
2018-03-14T05:21:19.809Z,1005.97
2018-03-14T05:22:36.415Z,1005.95
2018-03-14T05:23:19.819Z,1005.97
2018-03-14T05:24:40.830Z,1006.01
2018-03-14T05:25:19.829Z,1006.00
2018-03-14T05:26:19.840Z,1006.00
2018-03-14T05:27:19.833Z,1006.00
2018-03-14T05:28:19.844Z,1006.01
2018-03-14T05:29:19.856Z,1005.98
2018-03-14T05:30:49.399Z,1005.99
2018-03-14T05:31:19.890Z,1006.04
2018-03-14T05:32:19.915Z,1006.00
2018-03-14T05:33:19.861Z,1006.03
2018-03-14T05:34:20.878Z,1006.05
2018-03-14T05:35:19.867Z,1006.04
2018-03-14T05:36:19.881Z,1006.00
2018-03-14T05:37:19.881Z,1005.96
2018-03-14T05:38:20.887Z,1006.00
2018-03-14T05:39:19.899Z,1005.96
2018-03-14T05:40:26.884Z,1005.98
2018-03-14T05:41:19.897Z,1005.95
2018-03-14T05:42:24.911Z,1005.96
2018-03-14T05:43:19.910Z,1005.97
2018-03-14T05:44:26.884Z,1005.99
2018-03-14T05:45:19.920Z,1006.02
2018-03-14T05:46:20.918Z,1005.98
2018-03-14T05:47:19.947Z,1005.97
2018-03-14T05:51:09.122Z,1006.12
2018-03-14T05:52:00.422Z,1006.12
2018-03-14T05:55:58.696Z,1006.10
2018-03-14T05:57:19.642Z,1006.09
2018-03-14T05:57:50.911Z,1006.06
2018-03-14T05:59:28.644Z,1006.11
2018-03-14T05:59:50.908Z,1006.16
2018-03-14T06:00:50.996Z,1006.17
2018-03-14T06:01:52.981Z,1006.15
2018-03-14T06:02:50.926Z,1006.19
2018-03-14T06:04:14.644Z,1006.19
2018-03-14T06:04:50.942Z,1006.18
2018-03-14T06:05:50.935Z,1006.19
2018-03-14T06:06:50.944Z,1006.20
2018-03-14T06:07:50.944Z,1006.15
2018-03-14T06:08:50.947Z,1006.22
2018-03-14T06:09:50.956Z,1006.16
2018-03-14T06:10:50.960Z,1006.15
2018-03-14T06:11:50.989Z,1006.19
2018-03-14T06:12:50.970Z,1006.14
2018-03-14T06:13:50.973Z,1006.19
2018-03-14T06:14:50.984Z,1006.15
2018-03-14T06:15:50.977Z,1006.20
2018-03-14T06:16:50.985Z,1006.17
2018-03-14T06:17:50.987Z,1006.15
2018-03-14T06:18:51.020Z,1006.09
2018-03-14T06:19:51.018Z,1006.19
2018-03-14T06:20:51.004Z,1006.14
2018-03-14T06:21:51.030Z,1006.15
2018-03-14T06:22:51.009Z,1006.21
2018-03-14T06:23:51.013Z,1006.24
2018-03-14T06:24:51.043Z,1006.25
2018-03-14T06:25:51.044Z,1006.24
2018-03-14T06:26:51.034Z,1006.26
2018-03-14T06:27:51.030Z,1006.28
2018-03-14T06:28:51.047Z,1006.36
2018-03-14T06:29:51.043Z,1006.32
2018-03-14T06:30:51.048Z,1006.28
2018-03-14T06:31:51.053Z,1006.28
2018-03-14T06:32:51.056Z,1006.27
2018-03-14T06:33:51.071Z,1006.28
2018-03-14T06:34:51.078Z,1006.30
2018-03-14T06:35:51.064Z,1006.32
2018-03-14T06:36:51.078Z,1006.28
2018-03-14T06:37:51.077Z,1006.37
2018-03-14T06:38:51.089Z,1006.37
2018-03-14T06:39:51.091Z,1006.37
2018-03-14T06:40:51.093Z,1006.39
2018-03-14T06:41:51.086Z,1006.45
2018-03-14T06:42:51.096Z,1006.48
2018-03-14T06:43:51.099Z,1006.41
2018-03-14T06:44:51.105Z,1006.48
2018-03-14T06:45:51.103Z,1006.45
2018-03-14T06:46:51.119Z,1006.45
2018-03-14T06:47:51.113Z,1006.45
2018-03-14T06:48:51.123Z,1006.46
2018-03-14T06:49:51.118Z,1006.51
2018-03-14T06:50:51.131Z,1006.50
2018-03-14T06:51:51.124Z,1006.49
2018-03-14T06:52:51.134Z,1006.51
2018-03-14T06:53:51.147Z,1006.55
2018-03-14T06:54:51.143Z,1006.51
2018-03-14T06:55:51.156Z,1006.51
2018-03-14T06:56:51.160Z,1006.54
2018-03-14T06:57:51.156Z,1006.55
2018-03-14T06:58:51.171Z,1006.58
2018-03-14T06:59:51.173Z,1006.48
2018-03-14T07:00:51.176Z,1006.55
2018-03-14T07:01:51.174Z,1006.52
2018-03-14T07:02:51.200Z,1006.57
2018-03-14T07:03:51.194Z,1006.50
2018-03-14T07:04:51.204Z,1006.59
2018-03-14T07:05:51.184Z,1006.63
2018-03-14T07:06:51.214Z,1006.58
2018-03-14T07:07:51.199Z,1006.56
2018-03-14T07:08:51.220Z,1006.58
2018-03-14T07:09:51.201Z,1006.54
2018-03-14T07:10:53.230Z,1006.60
2018-03-14T07:11:51.216Z,1006.62
2018-03-14T07:12:51.227Z,1006.63
2018-03-14T07:13:51.217Z,1006.62
2018-03-14T07:14:51.250Z,1006.63
2018-03-14T07:15:51.236Z,1006.65
2018-03-14T07:16:51.259Z,1006.65
2018-03-14T07:17:51.234Z,1006.64
2018-03-14T07:18:51.242Z,1006.65
2018-03-14T07:19:51.252Z,1006.68
2018-03-14T07:20:51.258Z,1006.68
2018-03-14T07:21:51.268Z,1006.65
2018-03-14T07:22:51.279Z,1006.69
2018-03-14T07:23:51.266Z,1006.68
2018-03-14T07:24:51.276Z,1006.68
2018-03-14T07:25:51.277Z,1006.76
2018-03-14T07:26:51.286Z,1006.72
2018-03-14T07:27:51.304Z,1006.68
2018-03-14T07:28:51.284Z,1006.76
2018-03-14T07:29:51.291Z,1006.77
2018-03-14T07:30:51.290Z,1006.77
2018-03-14T07:31:51.359Z,1006.79
2018-03-14T07:32:51.302Z,1006.80
2018-03-14T07:33:51.300Z,1006.83
2018-03-14T07:34:51.309Z,1006.84
2018-03-14T07:35:51.319Z,1006.84
2018-03-14T07:36:51.314Z,1006.84
2018-03-14T07:37:51.369Z,1006.87
2018-03-14T07:38:51.324Z,1006.88
2018-03-14T07:39:51.341Z,1006.88
2018-03-14T07:40:51.333Z,1006.84
2018-03-14T07:41:52.343Z,1006.82
2018-03-14T07:42:51.387Z,1006.84
2018-03-14T07:43:51.353Z,1006.80
2018-03-14T07:44:51.367Z,1006.82
2018-03-14T07:45:51.378Z,1006.86
2018-03-14T07:46:51.371Z,1006.86
2018-03-14T07:47:51.366Z,1006.87
2018-03-14T07:48:51.366Z,1006.92
2018-03-14T07:49:51.408Z,1006.92
2018-03-14T07:50:51.370Z,1006.92
2018-03-14T07:51:51.379Z,1006.87
2018-03-14T07:52:51.397Z,1006.94
2018-03-14T07:53:51.388Z,1006.91
2018-03-14T07:54:51.695Z,1006.93
2018-03-14T07:55:51.410Z,1006.94
2018-03-14T07:56:51.399Z,1007.01
2018-03-14T07:57:51.404Z,1006.99
2018-03-14T07:58:51.559Z,1007.00
2018-03-14T07:59:51.411Z,1007.04
2018-03-14T08:00:51.569Z,1007.07
2018-03-14T08:01:51.417Z,1007.07
2018-03-14T08:02:51.593Z,1007.01
2018-03-14T08:03:51.429Z,1007.03
2018-03-14T08:04:51.535Z,1007.01
2018-03-14T08:05:51.439Z,1006.98
2018-03-14T08:06:51.439Z,1006.95
2018-03-14T08:07:51.621Z,1006.96
2018-03-14T08:08:51.447Z,1006.98
2018-03-14T08:09:51.528Z,1006.94
2018-03-14T08:10:51.479Z,1006.95
2018-03-14T08:11:52.567Z,1007.03
2018-03-14T08:12:51.458Z,1006.95
2018-03-14T08:13:51.670Z,1006.91
2018-03-14T08:14:51.471Z,1006.90
2018-03-14T08:15:51.579Z,1006.95
2018-03-14T08:16:51.478Z,1006.92
2018-03-14T08:17:52.611Z,1006.98
2018-03-14T08:18:51.488Z,1006.94
2018-03-14T08:19:51.610Z,1006.97
2018-03-14T08:20:51.542Z,1006.95
2018-03-14T08:21:51.618Z,1006.97
2018-03-14T08:22:51.504Z,1006.96
2018-03-14T08:23:51.624Z,1006.99
2018-03-14T08:24:51.515Z,1007.00
2018-03-14T08:25:51.644Z,1006.95
2018-03-14T08:26:51.527Z,1006.90
2018-03-14T08:27:56.255Z,1006.94
2018-03-14T08:28:51.542Z,1006.97
2018-03-14T08:29:51.664Z,1006.96
2018-03-14T08:30:51.529Z,1007.01
2018-03-14T08:31:51.677Z,1006.97
2018-03-14T08:32:51.549Z,1006.95
2018-03-14T08:33:51.549Z,1006.97
2018-03-14T08:34:51.700Z,1006.99
2018-03-14T08:35:51.556Z,1006.97
2018-03-14T08:36:51.614Z,1007.00
2018-03-14T08:37:51.601Z,1006.95
2018-03-14T08:38:51.574Z,1007.05
2018-03-14T08:39:51.569Z,1007.00
2018-03-14T08:40:51.740Z,1007.05
2018-03-14T08:41:51.731Z,1007.05
2018-03-14T08:42:51.584Z,1007.05
2018-03-14T08:43:51.656Z,1007.06
2018-03-14T08:44:51.619Z,1007.05
2018-03-14T08:45:51.668Z,1007.05
2018-03-14T08:46:51.641Z,1007.11
2018-03-14T08:47:51.694Z,1007.06
2018-03-14T08:48:51.607Z,1007.04
2018-03-14T08:49:51.695Z,1007.05
2018-03-14T08:50:51.623Z,1007.04
2018-03-14T08:51:51.712Z,1007.05
2018-03-14T08:52:51.634Z,1007.12
2018-03-14T08:53:51.634Z,1007.16
2018-03-14T08:54:51.732Z,1007.12
2018-03-14T08:55:51.639Z,1007.07
2018-03-14T08:56:52.668Z,1007.10
2018-03-14T08:57:51.664Z,1007.06
2018-03-14T08:58:51.760Z,1007.09
2018-03-14T08:59:51.658Z,1007.04
2018-03-14T09:00:51.672Z,1007.05
2018-03-14T09:01:51.664Z,1007.07
2018-03-14T09:02:51.684Z,1007.08
2018-03-14T09:03:51.677Z,1007.05
2018-03-14T09:04:51.695Z,1007.10
2018-03-14T09:05:51.688Z,1007.08
2018-03-14T09:06:51.710Z,1007.06
2018-03-14T09:07:51.718Z,1007.06
2018-03-14T09:08:52.796Z,1007.04
2018-03-14T09:09:51.740Z,1007.05
2018-03-14T09:10:51.753Z,1007.09
2018-03-14T09:11:51.716Z,1007.05
2018-03-14T09:12:51.793Z,1007.07
2018-03-14T09:13:51.723Z,1007.07
2018-03-14T09:14:52.801Z,1007.05
2018-03-14T09:15:51.740Z,1007.10
2018-03-14T09:16:52.821Z,1007.12
2018-03-14T09:17:51.741Z,1007.11
2018-03-14T09:18:51.810Z,1007.11
2018-03-14T09:19:51.742Z,1007.14
2018-03-14T09:20:51.812Z,1007.12
2018-03-14T09:21:51.751Z,1007.09
2018-03-14T09:22:51.747Z,1007.08
2018-03-14T09:23:51.763Z,1007.10
2018-03-14T09:24:52.877Z,1007.11
2018-03-14T09:25:51.775Z,1007.09
2018-03-14T09:26:51.859Z,1007.08
2018-03-14T09:27:51.792Z,1007.17
2018-03-14T09:28:51.878Z,1007.15
2018-03-14T09:29:51.791Z,1007.14
2018-03-14T09:30:51.908Z,1007.18
2018-03-14T09:31:51.824Z,1007.21
2018-03-14T09:32:51.933Z,1007.22
2018-03-14T09:33:51.815Z,1007.14
2018-03-14T09:34:53.869Z,1007.16
2018-03-14T09:35:51.844Z,1007.16
2018-03-14T09:36:51.833Z,1007.13
2018-03-14T09:37:51.941Z,1007.13
2018-03-14T09:38:51.863Z,1007.14
2018-03-14T09:39:51.939Z,1007.12
2018-03-14T09:40:51.828Z,1007.18
2018-03-14T09:41:52.918Z,1007.19
2018-03-14T09:42:51.836Z,1007.20
2018-03-14T09:43:51.865Z,1007.23
2018-03-14T09:44:51.847Z,1007.18
2018-03-14T09:45:51.890Z,1007.20
2018-03-14T09:46:51.854Z,1007.19
2018-03-14T09:47:51.895Z,1007.20
2018-03-14T09:48:51.862Z,1007.18
2018-03-14T09:49:51.908Z,1007.19
2018-03-14T09:50:51.877Z,1007.21
2018-03-14T09:51:51.880Z,1007.21
2018-03-14T09:52:51.889Z,1007.18
2018-03-14T09:53:51.948Z,1007.20
2018-03-14T09:54:51.895Z,1007.17
2018-03-14T09:55:51.948Z,1007.22
2018-03-14T09:56:51.908Z,1007.12
2018-03-14T09:57:51.966Z,1007.13
2018-03-14T09:58:51.927Z,1007.16
2018-03-14T09:59:52.000Z,1007.18
2018-03-14T10:00:51.934Z,1007.12
2018-03-14T10:01:51.933Z,1007.15
2018-03-14T10:02:52.044Z,1007.20
2018-03-14T10:03:51.948Z,1007.16
2018-03-14T10:04:53.034Z,1007.15
2018-03-14T10:05:51.933Z,1007.13
2018-03-14T10:06:52.020Z,1007.17
2018-03-14T10:07:51.954Z,1007.14
2018-03-14T10:08:52.035Z,1007.12
2018-03-14T10:09:51.959Z,1007.14
2018-03-14T10:10:56.763Z,1007.25
2018-03-14T10:11:51.970Z,1007.15
2018-03-14T10:12:52.061Z,1007.25
2018-03-14T10:13:51.980Z,1007.19
2018-03-14T10:14:51.981Z,1007.18
2018-03-14T10:15:53.010Z,1007.15
2018-03-14T10:16:52.041Z,1007.12
2018-03-14T10:17:52.094Z,1007.14
2018-03-14T10:18:51.993Z,1007.15
2018-03-14T10:19:52.106Z,1007.13
2018-03-14T10:20:52.003Z,1007.14
2018-03-14T10:21:53.046Z,1007.09
2018-03-14T10:22:52.009Z,1007.18
2018-03-14T10:23:52.139Z,1007.15
2018-03-14T10:24:52.021Z,1007.13
2018-03-14T10:25:53.109Z,1007.21
2018-03-14T10:26:52.032Z,1007.15
2018-03-14T10:27:53.080Z,1007.16
2018-03-14T10:28:52.043Z,1007.21
2018-03-14T10:29:52.074Z,1007.22
2018-03-14T10:30:52.045Z,1007.20
2018-03-14T10:31:52.088Z,1007.20
2018-03-14T10:32:52.056Z,1007.17
2018-03-14T10:33:52.099Z,1007.17
2018-03-14T10:34:52.126Z,1007.15
2018-03-14T10:35:52.069Z,1007.15
2018-03-14T10:36:52.128Z,1007.13
2018-03-14T10:37:52.082Z,1007.11
2018-03-14T10:38:52.086Z,1007.16
2018-03-14T10:39:52.091Z,1007.14
2018-03-14T10:40:52.149Z,1007.17
2018-03-14T10:41:52.160Z,1007.11
2018-03-14T10:42:52.098Z,1007.17
2018-03-14T10:43:52.172Z,1007.14
2018-03-14T10:44:52.108Z,1007.18
2018-03-14T10:45:52.113Z,1007.18
2018-03-14T10:46:52.121Z,1007.17
2018-03-14T10:47:52.192Z,1007.20
2018-03-14T10:48:52.132Z,1007.13
2018-03-14T10:49:52.215Z,1007.18
2018-03-14T10:50:52.151Z,1007.20
2018-03-14T10:51:52.156Z,1007.14
2018-03-14T10:52:52.237Z,1007.17
2018-03-14T10:53:52.152Z,1007.17
2018-03-14T10:54:52.249Z,1007.17
2018-03-14T10:55:52.188Z,1007.14
2018-03-14T10:56:52.272Z,1007.17
2018-03-14T10:57:52.175Z,1007.12
2018-03-14T10:58:52.184Z,1007.12
2018-03-14T10:59:52.206Z,1007.07
2018-03-14T11:00:52.216Z,1007.13
2018-03-14T11:01:52.193Z,1007.11
2018-03-14T11:02:52.302Z,1007.10
2018-03-14T11:03:52.217Z,1007.16
2018-03-14T11:04:52.310Z,1007.10
2018-03-14T11:05:52.222Z,1007.08
2018-03-14T11:06:52.330Z,1007.14
2018-03-14T11:07:52.234Z,1007.12
2018-03-14T11:08:52.337Z,1007.13
2018-03-14T11:09:52.243Z,1007.16
2018-03-14T11:10:52.269Z,1007.22
2018-03-14T11:11:52.239Z,1007.13
2018-03-14T11:12:52.243Z,1007.11
2018-03-14T11:13:52.258Z,1007.10
2018-03-14T11:14:52.258Z,1007.04
2018-03-14T11:15:52.265Z,1007.02
2018-03-14T11:16:52.265Z,1007.00
2018-03-14T11:17:52.270Z,1006.99
2018-03-14T11:18:52.277Z,1007.01
2018-03-14T11:19:52.278Z,1007.00
2018-03-14T11:20:52.285Z,1007.03
2018-03-14T11:21:52.288Z,1006.97
2018-03-14T11:22:52.297Z,1007.02
2018-03-14T11:23:52.304Z,1007.01
2018-03-14T11:24:52.309Z,1006.94
2018-03-14T11:25:52.313Z,1006.88
2018-03-14T11:26:52.321Z,1006.90
2018-03-14T11:27:52.322Z,1006.89
2018-03-14T11:28:52.376Z,1006.96
2018-03-14T11:29:52.331Z,1006.93
2018-03-14T11:30:52.336Z,1006.96
2018-03-14T11:31:52.412Z,1006.94
2018-03-14T11:32:52.339Z,1006.97
2018-03-14T11:33:52.427Z,1006.96
2018-03-14T11:34:52.351Z,1007.01
2018-03-14T11:35:52.421Z,1007.04
2018-03-14T11:36:52.361Z,1006.98
2018-03-14T11:37:52.435Z,1006.91
2018-03-14T11:38:52.373Z,1006.94
2018-03-14T11:39:52.461Z,1006.97
2018-03-14T11:40:52.389Z,1006.92
2018-03-14T11:41:52.389Z,1006.89
2018-03-14T11:42:52.393Z,1006.91
2018-03-14T11:43:52.400Z,1006.95
2018-03-14T11:44:52.481Z,1006.96
2018-03-14T11:45:52.464Z,1006.91
2018-03-14T11:46:52.510Z,1006.89
2018-03-14T11:47:52.422Z,1006.89
2018-03-14T11:48:52.514Z,1006.92
2018-03-14T11:49:52.429Z,1006.88
2018-03-14T11:50:52.526Z,1006.89
2018-03-14T11:51:52.440Z,1006.81
2018-03-14T11:52:52.541Z,1006.83
2018-03-14T11:53:52.452Z,1006.89
2018-03-14T11:54:52.558Z,1006.83
2018-03-14T11:55:52.462Z,1006.79
2018-03-14T11:56:52.570Z,1006.81
2018-03-14T11:57:52.471Z,1006.77
2018-03-14T11:58:52.483Z,1006.74
2018-03-14T11:59:52.490Z,1006.71
2018-03-14T12:00:52.491Z,1006.73
2018-03-14T12:01:52.503Z,1006.69
2018-03-14T12:02:52.494Z,1006.68
2018-03-14T12:03:52.500Z,1006.70
2018-03-14T12:04:52.509Z,1006.68
2018-03-14T12:05:52.513Z,1006.73
2018-03-14T12:06:52.517Z,1006.69
2018-03-14T12:07:52.523Z,1006.69
2018-03-14T12:08:52.546Z,1006.66
2018-03-14T12:09:52.528Z,1006.68
2018-03-14T12:10:52.560Z,1006.66